sensor_id;sensor_type;location;lat;lon;timestamp;pressure;altitude;pressure_sealevel;temperature;humidity
35226;BME280;21813;49.686;21.766;2023-02-02T00:00:22;97465.22;;;0.91;100.00
35226;BME280;21813;49.686;21.766;2023-02-02T00:03:10;97457.50;;;0.91;100.00
35226;BME280;21813;49.686;21.766;2023-02-02T00:05:36;97465.22;;;0.91;100.00
35226;BME280;21813;49.686;21.766;2023-02-02T00:08:02;97455.53;;;0.96;100.00
35226;BME280;21813;49.686;21.766;2023-02-02T00:10:28;97456.25;;;0.98;100.00
35226;BME280;21813;49.686;21.766;2023-02-02T00:12:54;97450.38;;;0.96;100.00
35226;BME280;21813;49.686;21.766;2023-02-02T00:15:46;97439.44;;;0.93;100.00
35226;BME280;21813;49.686;21.766;2023-02-02T00:18:20;97457.91;;;0.99;100.00
35226;BME280;21813;49.686;21.766;2023-02-02T00:20:51;97457.19;;;0.97;100.00
35226;BME280;21813;49.686;21.766;2023-02-02T00:23:18;97458.66;;;1.01;100.00
35226;BME280;21813;49.686;21.766;2023-02-02T00:25:48;97465.34;;;1.04;100.00
35226;BME280;21813;49.686;21.766;2023-02-02T00:28:14;97457.81;;;1.01;100.00
35226;BME280;21813;49.686;21.766;2023-02-02T00:30:40;97472.06;;;1.06;100.00
35226;BME280;21813;49.686;21.766;2023-02-02T00:33:08;97468.56;;;1.07;100.00
35226;BME280;21813;49.686;21.766;2023-02-02T00:35:39;97474.91;;;1.16;100.00
35226;BME280;21813;49.686;21.766;2023-02-02T00:38:12;97474.63;;;1.20;100.00
35226;BME280;21813;49.686;21.766;2023-02-02T00:40:37;97464.56;;;1.17;100.00
35226;BME280;21813;49.686;21.766;2023-02-02T00:43:10;97477.22;;;1.20;100.00
35226;BME280;21813;49.686;21.766;2023-02-02T00:45:37;97462.50;;;1.24;100.00
35226;BME280;21813;49.686;21.766;2023-02-02T00:48:03;97460.75;;;1.24;100.00
35226;BME280;21813;49.686;21.766;2023-02-02T00:50:30;97460.00;;;1.22;100.00
35226;BME280;21813;49.686;21.766;2023-02-02T00:53:10;97454.94;;;1.21;100.00
35226;BME280;21813;49.686;21.766;2023-02-02T00:55:36;97456.53;;;1.23;100.00
35226;BME280;21813;49.686;21.766;2023-02-02T00:58:06;97459.25;;;1.20;100.00
35226;BME280;21813;49.686;21.766;2023-02-02T01:00:32;97444.03;;;1.17;100.00
35226;BME280;21813;49.686;21.766;2023-02-02T01:02:58;97447.69;;;1.13;100.00
35226;BME280;21813;49.686;21.766;2023-02-02T01:05:35;97451.91;;;1.14;100.00
35226;BME280;21813;49.686;21.766;2023-02-02T01:08:09;97438.53;;;1.09;100.00
35226;BME280;21813;49.686;21.766;2023-02-02T01:10:34;97441.28;;;1.06;100.00
35226;BME280;21813;49.686;21.766;2023-02-02T01:13:02;97451.34;;;1.09;100.00
35226;BME280;21813;49.686;21.766;2023-02-02T01:15:28;97439.75;;;1.02;100.00
35226;BME280;21813;49.686;21.766;2023-02-02T01:17:56;97434.81;;;0.99;100.00
35226;BME280;21813;49.686;21.766;2023-02-02T01:20:22;97436.41;;;1.02;100.00
35226;BME280;21813;49.686;21.766;2023-02-02T01:22:49;97433.00;;;1.01;100.00
35226;BME280;21813;49.686;21.766;2023-02-02T01:25:15;97429.69;;;0.99;100.00
35226;BME280;21813;49.686;21.766;2023-02-02T01:27:42;97426.41;;;0.97;100.00
35226;BME280;21813;49.686;21.766;2023-02-02T01:30:08;97408.44;;;0.97;100.00
35226;BME280;21813;49.686;21.766;2023-02-02T01:32:34;97408.44;;;0.97;100.00
35226;BME280;21813;49.686;21.766;2023-02-02T01:35:00;97414.28;;;0.99;100.00
35226;BME280;21813;49.686;21.766;2023-02-02T01:37:26;97404.88;;;1.00;100.00
35226;BME280;21813;49.686;21.766;2023-02-02T01:39:52;97409.16;;;0.99;100.00
35226;BME280;21813;49.686;21.766;2023-02-02T01:42:21;97410.75;;;1.02;100.00
35226;BME280;21813;49.686;21.766;2023-02-02T01:45:11;97403.84;;;1.02;100.00
35226;BME280;21813;49.686;21.766;2023-02-02T01:47:59;97400.38;;;1.03;100.00
35226;BME280;21813;49.686;21.766;2023-02-02T01:50:30;97403.84;;;1.02;100.00
35226;BME280;21813;49.686;21.766;2023-02-02T01:52:59;97401.38;;;1.01;100.00
35226;BME280;21813;49.686;21.766;2023-02-02T02:46:32;97413.81;;;1.22;100.00
35226;BME280;21813;49.686;21.766;2023-02-02T02:49:00;97420.59;;;1.23;100.00
35226;BME280;21813;49.686;21.766;2023-02-02T02:54:04;97424.72;;;1.26;100.00
35226;BME280;21813;49.686;21.766;2023-02-02T02:56:36;97441.69;;;1.28;100.00
35226;BME280;21813;49.686;21.766;2023-02-02T03:38:48;97472.84;;;1.22;100.00
35226;BME280;21813;49.686;21.766;2023-02-02T03:41:14;97471.16;;;1.21;100.00
35226;BME280;21813;49.686;21.766;2023-02-02T03:43:39;97462.91;;;1.16;100.00
35226;BME280;21813;49.686;21.766;2023-02-02T03:46:05;97473.28;;;1.15;100.00
35226;BME280;21813;49.686;21.766;2023-02-02T03:48:35;97475.16;;;1.11;100.00
35226;BME280;21813;49.686;21.766;2023-02-02T03:51:19;97471.88;;;1.09;100.00
35226;BME280;21813;49.686;21.766;2023-02-02T03:53:45;97476.25;;;1.07;100.00
35226;BME280;21813;49.686;21.766;2023-02-02T03:56:14;97478.16;;;1.04;100.00
35226;BME280;21813;49.686;21.766;2023-02-02T03:58:39;97477.53;;;1.00;100.00
35226;BME280;21813;49.686;21.766;2023-02-02T04:15:45;97480.03;;;0.86;100.00
35226;BME280;21813;49.686;21.766;2023-02-02T04:18:20;97487.06;;;0.82;100.00
35226;BME280;21813;49.686;21.766;2023-02-02T04:20:46;97483.66;;;0.82;100.00
35226;BME280;21813;49.686;21.766;2023-02-02T04:23:13;97490.72;;;0.78;100.00
35226;BME280;21813;49.686;21.766;2023-02-02T04:25:39;97500.88;;;0.80;100.00
35226;BME280;21813;49.686;21.766;2023-02-02T04:28:14;97497.56;;;0.78;100.00
35226;BME280;21813;49.686;21.766;2023-02-02T04:30:40;97506.19;;;0.77;100.00
35226;BME280;21813;49.686;21.766;2023-02-02T04:33:08;97511.47;;;0.74;100.00
35226;BME280;21813;49.686;21.766;2023-02-02T04:35:34;97511.47;;;0.74;100.00
35226;BME280;21813;49.686;21.766;2023-02-02T04:38:01;97513.28;;;0.72;100.00
35226;BME280;21813;49.686;21.766;2023-02-02T04:40:33;97509.97;;;0.70;100.00
35226;BME280;21813;49.686;21.766;2023-02-02T04:43:10;97521.75;;;0.74;100.00
35226;BME280;21813;49.686;21.766;2023-02-02T04:45:39;97515.94;;;0.70;100.00
35226;BME280;21813;49.686;21.766;2023-02-02T04:48:18;97521.06;;;0.70;100.00
35226;BME280;21813;49.686;21.766;2023-02-02T04:50:43;97533.81;;;0.72;100.00
35226;BME280;21813;49.686;21.766;2023-02-02T04:53:17;97535.59;;;0.70;100.00
35226;BME280;21813;49.686;21.766;2023-02-02T04:55:43;97539.09;;;0.69;100.00
35226;BME280;21813;49.686;21.766;2023-02-02T04:58:12;97540.72;;;0.70;100.00
35226;BME280;21813;49.686;21.766;2023-02-02T05:00:38;97534.06;;;0.67;100.00
35226;BME280;21813;49.686;21.766;2023-02-02T05:03:23;97546.63;;;0.72;100.00
35226;BME280;21813;49.686;21.766;2023-02-02T05:06:32;97535.59;;;0.70;100.00
35226;BME280;21813;49.686;21.766;2023-02-02T05:09:38;97536.38;;;0.72;100.00
35226;BME280;21813;49.686;21.766;2023-02-02T05:12:41;97544.97;;;0.71;100.00
35226;BME280;21813;49.686;21.766;2023-02-02T05:15:08;97544.72;;;0.75;100.00
35226;BME280;21813;49.686;21.766;2023-02-02T05:17:34;97561.59;;;0.79;100.00
35226;BME280;21813;49.686;21.766;2023-02-02T05:20:00;97555.72;;;0.77;100.00
35226;BME280;21813;49.686;21.766;2023-02-02T05:22:26;97555.81;;;0.76;100.00
35226;BME280;21813;49.686;21.766;2023-02-02T05:24:54;97549.00;;;0.75;100.00
35226;BME280;21813;49.686;21.766;2023-02-02T05:27:19;97561.59;;;0.79;100.00
35226;BME280;21813;49.686;21.766;2023-02-02T05:29:46;97569.28;;;0.79;100.00
35226;BME280;21813;49.686;21.766;2023-02-02T05:32:12;97581.13;;;0.82;100.00
35226;BME280;21813;49.686;21.766;2023-02-02T05:34:40;97579.47;;;0.81;100.00
35226;BME280;21813;49.686;21.766;2023-02-02T05:37:21;97573.59;;;0.79;100.00
35226;BME280;21813;49.686;21.766;2023-02-02T05:40:12;97579.47;;;0.81;100.00
35226;BME280;21813;49.686;21.766;2023-02-02T05:42:38;97566.81;;;0.78;100.00
35226;BME280;21813;49.686;21.766;2023-02-02T05:45:11;97584.44;;;0.84;100.00
35226;BME280;21813;49.686;21.766;2023-02-02T05:50:37;97594.69;;;0.84;100.00
35226;BME280;21813;49.686;21.766;2023-02-02T05:53:14;97595.44;;;0.86;100.00
35226;BME280;21813;49.686;21.766;2023-02-02T05:55:42;97580.31;;;0.81;100.00
35226;BME280;21813;49.686;21.766;2023-02-02T05:58:16;97571.84;;;0.79;100.00
35226;BME280;21813;49.686;21.766;2023-02-02T06:00:53;97575.00;;;0.84;100.00
35226;BME280;21813;49.686;21.766;2023-02-02T06:03:35;97582.63;;;0.86;100.00
35226;BME280;21813;49.686;21.766;2023-02-02T06:06:05;97594.28;;;0.92;100.00
35226;BME280;21813;49.686;21.766;2023-02-02T06:08:31;97610.34;;;0.95;100.00
35226;BME280;21813;49.686;21.766;2023-02-02T06:11:12;97597.69;;;0.92;100.00
35226;BME280;21813;49.686;21.766;2023-02-02T06:13:46;97605.38;;;0.92;100.00
35226;BME280;21813;49.686;21.766;2023-02-02T06:16:13;97606.88;;;0.96;100.00
35226;BME280;21813;49.686;21.766;2023-02-02T06:18:39;97607.72;;;0.97;100.00
35226;BME280;21813;49.686;21.766;2023-02-02T06:21:08;97596.75;;;0.93;100.00
35226;BME280;21813;49.686;21.766;2023-02-02T06:23:34;97601.81;;;0.95;100.00
35226;BME280;21813;49.686;21.766;2023-02-02T06:26:01;97596.69;;;0.95;100.00
35226;BME280;21813;49.686;21.766;2023-02-02T06:28:33;97609.19;;;1.01;100.00
35226;BME280;21813;49.686;21.766;2023-02-02T06:31:14;97601.63;;;0.98;100.00
35226;BME280;21813;49.686;21.766;2023-02-02T06:33:53;97603.97;;;1.02;100.00
35226;BME280;21813;49.686;21.766;2023-02-02T06:40:00;97616.41;;;1.10;100.00
35226;BME280;21813;49.686;21.766;2023-02-02T06:46:07;97601.97;;;1.07;100.00
35226;BME280;21813;49.686;21.766;2023-02-02T06:49:03;97606.97;;;1.10;100.00
35226;BME280;21813;49.686;21.766;2023-02-02T06:51:31;97604.28;;;1.12;100.00
35226;BME280;21813;49.686;21.766;2023-02-02T06:54:14;97615.00;;;1.20;100.00
35226;BME280;21813;49.686;21.766;2023-02-02T06:56:40;97613.16;;;1.22;100.00
35226;BME280;21813;49.686;21.766;2023-02-02T06:59:06;97610.59;;;1.22;100.00
35226;BME280;21813;49.686;21.766;2023-02-02T07:01:32;97615.53;;;1.25;100.00
35226;BME280;21813;49.686;21.766;2023-02-02T07:03:58;97618.03;;;1.26;100.00
35226;BME280;21813;49.686;21.766;2023-02-02T07:06:26;97616.22;;;1.28;100.00
35226;BME280;21813;49.686;21.766;2023-02-02T07:08:53;97620.34;;;1.31;100.00
35226;BME280;21813;49.686;21.766;2023-02-02T07:11:19;97606.09;;;1.25;100.00
35226;BME280;21813;49.686;21.766;2023-02-02T07:13:49;97622.78;;;1.34;100.00
35226;BME280;21813;49.686;21.766;2023-02-02T07:16:17;97613.56;;;1.30;100.00
35226;BME280;21813;49.686;21.766;2023-02-02T07:18:43;97616.69;;;1.35;100.00
35226;BME280;21813;49.686;21.766;2023-02-02T07:21:21;97619.38;;;1.33;100.00
35226;BME280;21813;49.686;21.766;2023-02-02T07:23:47;97619.19;;;1.37;100.00
35226;BME280;21813;49.686;21.766;2023-02-02T07:26:14;97630.94;;;1.41;100.00
35226;BME280;21813;49.686;21.766;2023-02-02T07:28:40;97622.53;;;1.39;100.00
35226;BME280;21813;49.686;21.766;2023-02-02T07:31:19;97616.38;;;1.41;100.00
35226;BME280;21813;49.686;21.766;2023-02-02T07:33:46;97618.69;;;1.46;100.00
35226;BME280;21813;49.686;21.766;2023-02-02T07:36:15;97619.50;;;1.46;100.00
35226;BME280;21813;49.686;21.766;2023-02-02T07:38:45;97625.13;;;1.53;100.00
35226;BME280;21813;49.686;21.766;2023-02-02T07:41:13;97616.50;;;1.54;100.00
35226;BME280;21813;49.686;21.766;2023-02-02T07:43:41;97609.56;;;1.56;100.00
35226;BME280;21813;49.686;21.766;2023-02-02T07:46:09;97604.25;;;1.59;100.00
35226;BME280;21813;49.686;21.766;2023-02-02T07:48:37;97600.78;;;1.60;100.00
35226;BME280;21813;49.686;21.766;2023-02-02T07:51:17;97609.88;;;1.65;100.00
35226;BME280;21813;49.686;21.766;2023-02-02T07:53:55;97607.06;;;1.70;100.00
35226;BME280;21813;49.686;21.766;2023-02-02T07:56:26;97606.88;;;1.73;100.00
35226;BME280;21813;49.686;21.766;2023-02-02T07:58:53;97603.38;;;1.74;100.00
35226;BME280;21813;49.686;21.766;2023-02-02T08:01:20;97589.63;;;1.75;100.00
35226;BME280;21813;49.686;21.766;2023-02-02T08:03:48;97590.09;;;1.82;100.00
35226;BME280;21813;49.686;21.766;2023-02-02T08:06:22;97592.41;;;1.86;100.00
35226;BME280;21813;49.686;21.766;2023-02-02T08:11:19;97595.38;;;1.94;100.00
35226;BME280;21813;49.686;21.766;2023-02-02T08:13:48;97590.78;;;1.99;100.00
35226;BME280;21813;49.686;21.766;2023-02-02T08:16:15;97579.44;;;2.03;100.00
35226;BME280;21813;49.686;21.766;2023-02-02T08:18:41;97587.50;;;2.11;100.00
35226;BME280;21813;49.686;21.766;2023-02-02T08:21:13;97582.25;;;2.13;100.00
35226;BME280;21813;49.686;21.766;2023-02-02T08:23:40;97583.75;;;2.17;100.00
35226;BME280;21813;49.686;21.766;2023-02-02T08:26:36;97568.16;;;2.20;100.00
35226;BME280;21813;49.686;21.766;2023-02-02T08:29:05;97575.31;;;2.29;100.00
35226;BME280;21813;49.686;21.766;2023-02-02T08:31:45;97574.13;;;2.35;100.00
35226;BME280;21813;49.686;21.766;2023-02-02T08:34:27;97583.13;;;2.42;100.00
35226;BME280;21813;49.686;21.766;2023-02-02T08:37:08;97574.03;;;2.50;100.00
35226;BME280;21813;49.686;21.766;2023-02-02T08:39:33;97577.41;;;2.65;100.00
35226;BME280;21813;49.686;21.766;2023-02-02T08:42:02;97569.50;;;2.82;100.00
35226;BME280;21813;49.686;21.766;2023-02-02T08:44:27;97564.44;;;2.95;100.00
35226;BME280;21813;49.686;21.766;2023-02-02T08:47:00;97569.84;;;3.04;100.00
35226;BME280;21813;49.686;21.766;2023-02-02T08:49:25;97568.22;;;3.16;100.00
35226;BME280;21813;49.686;21.766;2023-02-02T08:51:52;97565.53;;;3.32;100.00
35226;BME280;21813;49.686;21.766;2023-02-02T08:54:18;97567.22;;;3.45;100.00
35226;BME280;21813;49.686;21.766;2023-02-02T08:56:48;97568.38;;;3.54;100.00
35226;BME280;21813;49.686;21.766;2023-02-02T08:59:16;97566.63;;;3.54;100.00
35226;BME280;21813;49.686;21.766;2023-02-02T09:01:57;97565.25;;;3.49;100.00
35226;BME280;21813;49.686;21.766;2023-02-02T09:04:24;97561.25;;;3.45;100.00
35226;BME280;21813;49.686;21.766;2023-02-02T09:07:01;97568.38;;;3.54;100.00
35226;BME280;21813;49.686;21.766;2023-02-02T09:09:31;97554.56;;;3.55;100.00
35226;BME280;21813;49.686;21.766;2023-02-02T09:17:43;97553.78;;;3.67;100.00
35226;BME280;21813;49.686;21.766;2023-02-02T09:20:11;97563.69;;;3.73;100.00
35226;BME280;21813;49.686;21.766;2023-02-02T09:27:48;97551.56;;;4.00;100.00
35226;BME280;21813;49.686;21.766;2023-02-02T09:30:22;97560.00;;;4.03;100.00
35226;BME280;21813;49.686;21.766;2023-02-02T09:39:13;97555.44;;;3.93;100.00
35226;BME280;21813;49.686;21.766;2023-02-02T09:48:08;97544.31;;;3.80;100.00
35226;BME280;21813;49.686;21.766;2023-02-02T09:50:55;97553.69;;;3.81;100.00
35226;BME280;21813;49.686;21.766;2023-02-02T09:56:42;97553.16;;;3.76;100.00
35226;BME280;21813;49.686;21.766;2023-02-02T09:59:21;97552.34;;;3.76;100.00
35226;BME280;21813;49.686;21.766;2023-02-02T10:01:51;97557.63;;;3.74;100.00
35226;BME280;21813;49.686;21.766;2023-02-02T10:04:38;97561.19;;;3.72;100.00
35226;BME280;21813;49.686;21.766;2023-02-02T10:07:09;97553.78;;;3.67;100.00
35226;BME280;21813;49.686;21.766;2023-02-02T10:21:00;97559.84;;;3.27;100.00
35226;BME280;21813;49.686;21.766;2023-02-02T10:23:30;97553.53;;;3.18;100.00
35226;BME280;21813;49.686;21.766;2023-02-02T10:26:15;97558.75;;;3.17;100.00
35226;BME280;21813;49.686;21.766;2023-02-02T10:34:26;97549.81;;;2.95;100.00
35226;BME280;21813;49.686;21.766;2023-02-02T10:37:26;97550.75;;;2.94;100.00
35226;BME280;21813;49.686;21.766;2023-02-02T10:45:11;97551.84;;;2.90;100.00
35226;BME280;21813;49.686;21.766;2023-02-02T10:47:39;97549.38;;;2.89;100.00
35226;BME280;21813;49.686;21.766;2023-02-02T10:52:51;97544.13;;;2.90;100.00
35226;BME280;21813;49.686;21.766;2023-02-02T10:55:31;97538.06;;;2.91;100.00
35226;BME280;21813;49.686;21.766;2023-02-02T10:58:29;97548.16;;;2.94;100.00
35226;BME280;21813;49.686;21.766;2023-02-02T11:00:58;97539.00;;;2.90;100.00
35226;BME280;21813;49.686;21.766;2023-02-02T11:03:28;97542.56;;;2.88;100.00
35226;BME280;21813;49.686;21.766;2023-02-02T11:05:57;97549.28;;;2.90;100.00
35226;BME280;21813;49.686;21.766;2023-02-02T11:08:46;97541.94;;;2.84;100.00
35226;BME280;21813;49.686;21.766;2023-02-02T11:11:20;97545.63;;;2.80;100.00
35226;BME280;21813;49.686;21.766;2023-02-02T11:13:56;97540.00;;;2.74;100.00
35226;BME280;21813;49.686;21.766;2023-02-02T11:16:40;97527.91;;;2.61;100.00
35226;BME280;21813;49.686;21.766;2023-02-02T11:19:32;97530.50;;;2.61;100.00
35226;BME280;21813;49.686;21.766;2023-02-02T11:22:03;97530.97;;;2.54;100.00
35226;BME280;21813;49.686;21.766;2023-02-02T11:24:48;97527.09;;;2.47;100.00
35226;BME280;21813;49.686;21.766;2023-02-02T11:27:20;97532.78;;;2.52;100.00
35226;BME280;21813;49.686;21.766;2023-02-02T11:29:50;97527.28;;;2.44;100.00
35226;BME280;21813;49.686;21.766;2023-02-02T11:32:31;97532.59;;;2.41;100.00
35226;BME280;21813;49.686;21.766;2023-02-02T11:37:30;97533.91;;;2.34;100.00
35226;BME280;21813;49.686;21.766;2023-02-02T11:40:34;97530.50;;;2.33;100.00
35226;BME280;21813;49.686;21.766;2023-02-02T11:43:17;97521.59;;;2.25;100.00
35226;BME280;21813;49.686;21.766;2023-02-02T11:45:45;97522.34;;;2.27;100.00
35226;BME280;21813;49.686;21.766;2023-02-02T11:48:26;97529.41;;;2.23;100.00
35226;BME280;21813;49.686;21.766;2023-02-02T11:50:56;97526.94;;;2.21;100.00
35226;BME280;21813;49.686;21.766;2023-02-02T11:53:32;97535.44;;;2.22;100.00
35226;BME280;21813;49.686;21.766;2023-02-02T11:56:05;97528.28;;;2.13;100.00
35226;BME280;21813;49.686;21.766;2023-02-02T11:58:56;97534.25;;;2.13;100.00
35226;BME280;21813;49.686;21.766;2023-02-02T12:01:37;97541.25;;;2.11;100.00
35226;BME280;21813;49.686;21.766;2023-02-02T12:06:38;97549.88;;;2.10;100.00
35226;BME280;21813;49.686;21.766;2023-02-02T12:09:18;97538.94;;;2.07;100.00
35226;BME280;21813;49.686;21.766;2023-02-02T12:15:31;97560.06;;;1.98;100.00
35226;BME280;21813;49.686;21.766;2023-02-02T12:20:51;97557.63;;;1.95;100.00
35226;BME280;21813;49.686;21.766;2023-02-02T12:23:49;97548.47;;;1.91;100.00
35226;BME280;21813;49.686;21.766;2023-02-02T12:26:29;97529.75;;;1.89;100.00
35226;BME280;21813;49.686;21.766;2023-02-02T12:29:13;97549.28;;;1.91;100.00
35226;BME280;21813;49.686;21.766;2023-02-02T12:40:13;97551.31;;;1.86;100.00
35226;BME280;21813;49.686;21.766;2023-02-02T12:43:17;97554.69;;;1.87;100.00
35226;BME280;21813;49.686;21.766;2023-02-02T12:55:14;97570.56;;;1.79;100.00
35226;BME280;21813;49.686;21.766;2023-02-02T13:00:35;97565.50;;;1.77;100.00
35226;BME280;21813;49.686;21.766;2023-02-02T13:06:50;97574.88;;;1.78;100.00
35226;BME280;21813;49.686;21.766;2023-02-02T13:09:36;97572.22;;;1.80;100.00
35226;BME280;21813;49.686;21.766;2023-02-02T13:12:12;97564.88;;;1.74;100.00
35226;BME280;21813;49.686;21.766;2023-02-02T13:14:54;97580.84;;;1.79;100.00
35226;BME280;21813;49.686;21.766;2023-02-02T13:17:47;97582.66;;;1.77;100.00
35226;BME280;21813;49.686;21.766;2023-02-02T13:20:52;97582.84;;;1.74;100.00
35226;BME280;21813;49.686;21.766;2023-02-02T13:24:02;97598.19;;;1.75;100.00
35226;BME280;21813;49.686;21.766;2023-02-02T13:26:44;97586.66;;;1.67;100.00
35226;BME280;21813;49.686;21.766;2023-02-02T13:29:28;97588.25;;;1.69;100.00
35226;BME280;21813;49.686;21.766;2023-02-02T13:34:54;97597.13;;;1.64;100.00
35226;BME280;21813;49.686;21.766;2023-02-02T13:37:40;97605.47;;;1.67;100.00
35226;BME280;21813;49.686;21.766;2023-02-02T13:40:30;97615.84;;;1.66;100.00
35226;BME280;21813;49.686;21.766;2023-02-02T13:51:18;97619.13;;;1.68;100.00
35226;BME280;21813;49.686;21.766;2023-02-02T14:01:46;97632.34;;;1.62;100.00
35226;BME280;21813;49.686;21.766;2023-02-02T14:04:31;97634.16;;;1.60;100.00
35226;BME280;21813;49.686;21.766;2023-02-02T14:07:03;97632.34;;;1.62;100.00
35226;BME280;21813;49.686;21.766;2023-02-02T14:09:35;97639.38;;;1.58;100.00
35226;BME280;21813;49.686;21.766;2023-02-02T14:12:08;97646.25;;;1.58;100.00
35226;BME280;21813;49.686;21.766;2023-02-02T14:14:36;97643.84;;;1.55;100.00
35226;BME280;21813;49.686;21.766;2023-02-02T14:23:02;97658.16;;;1.59;100.00
35226;BME280;21813;49.686;21.766;2023-02-02T14:28:11;97663.38;;;1.57;100.00
35226;BME280;21813;49.686;21.766;2023-02-02T14:30:37;97670.09;;;1.60;100.00
35226;BME280;21813;49.686;21.766;2023-02-02T14:33:24;97664.41;;;1.55;100.00
35226;BME280;21813;49.686;21.766;2023-02-02T14:38:31;97684.69;;;1.59;100.00
35226;BME280;21813;49.686;21.766;2023-02-02T14:41:13;97685.34;;;1.63;100.00
35226;BME280;21813;49.686;21.766;2023-02-02T14:44:05;97693.97;;;1.62;100.00
35226;BME280;21813;49.686;21.766;2023-02-02T14:46:33;97688.91;;;1.60;100.00
35226;BME280;21813;49.686;21.766;2023-02-02T14:51:28;97698.94;;;1.65;100.00
35226;BME280;21813;49.686;21.766;2023-02-02T14:53:58;97701.50;;;1.65;100.00
35226;BME280;21813;49.686;21.766;2023-02-02T14:56:44;97711.78;;;1.65;100.00
35226;BME280;21813;49.686;21.766;2023-02-02T14:59:37;97706.00;;;1.61;100.00
35226;BME280;21813;49.686;21.766;2023-02-02T15:08:24;97725.53;;;1.64;100.00
35226;BME280;21813;49.686;21.766;2023-02-02T15:10:57;97728.84;;;1.66;100.00
35226;BME280;21813;49.686;21.766;2023-02-02T15:13:30;97732.50;;;1.62;100.00
35226;BME280;21813;49.686;21.766;2023-02-02T15:16:14;97730.66;;;1.64;100.00
35226;BME280;21813;49.686;21.766;2023-02-02T15:18:45;97742.78;;;1.62;100.00
35226;BME280;21813;49.686;21.766;2023-02-02T15:21:16;97736.56;;;1.66;100.00
35226;BME280;21813;49.686;21.766;2023-02-02T15:23:55;97752.03;;;1.64;100.00
35226;BME280;21813;49.686;21.766;2023-02-02T15:26:27;97751.22;;;1.64;100.00
35226;BME280;21813;49.686;21.766;2023-02-02T15:29:02;97763.88;;;1.67;100.00
35226;BME280;21813;49.686;21.766;2023-02-02T15:31:47;97764.94;;;1.63;100.00
35226;BME280;21813;49.686;21.766;2023-02-02T15:34:23;97770.78;;;1.66;100.00
35226;BME280;21813;49.686;21.766;2023-02-02T15:37:01;97765.13;;;1.60;100.00
35226;BME280;21813;49.686;21.766;2023-02-02T15:39:39;97780.22;;;1.66;100.00
35226;BME280;21813;49.686;21.766;2023-02-02T15:42:15;97769.38;;;1.61;100.00
35226;BME280;21813;49.686;21.766;2023-02-02T15:45:00;97783.69;;;1.65;100.00
35226;BME280;21813;49.686;21.766;2023-02-02T15:47:34;97795.63;;;1.66;100.00
35226;BME280;21813;49.686;21.766;2023-02-02T15:50:03;97798.94;;;1.68;100.00
35226;BME280;21813;49.686;21.766;2023-02-02T15:52:31;97805.22;;;1.62;100.00
35226;BME280;21813;49.686;21.766;2023-02-02T15:55:00;97807.53;;;1.67;100.00
35226;BME280;21813;49.686;21.766;2023-02-02T15:57:35;97805.13;;;1.64;100.00
35226;BME280;21813;49.686;21.766;2023-02-02T16:02:58;97823.53;;;1.72;100.00
35226;BME280;21813;49.686;21.766;2023-02-02T16:07:58;97836.38;;;1.72;100.00
35226;BME280;21813;49.686;21.766;2023-02-02T16:10:24;97855.28;;;1.71;100.00
35226;BME280;21813;49.686;21.766;2023-02-02T16:12:51;97877.41;;;1.73;100.00
35226;BME280;21813;49.686;21.766;2023-02-02T16:15:20;97882.47;;;1.75;100.00
35226;BME280;21813;49.686;21.766;2023-02-02T16:18:09;97890.56;;;1.67;100.00
35226;BME280;21813;49.686;21.766;2023-02-02T16:20:38;97915.41;;;1.67;100.00
35226;BME280;21813;49.686;21.766;2023-02-02T16:23:14;97918.22;;;1.62;100.00
35226;BME280;21813;49.686;21.766;2023-02-02T16:25:49;97919.38;;;1.57;100.00
35226;BME280;21813;49.686;21.766;2023-02-02T16:28:21;97919.84;;;1.48;100.00
35226;BME280;21813;49.686;21.766;2023-02-02T16:30:49;97932.09;;;1.43;100.00
35226;BME280;21813;49.686;21.766;2023-02-02T16:35:51;97924.25;;;1.28;100.00
35226;BME280;21813;49.686;21.766;2023-02-02T16:40:47;97936.19;;;1.29;100.00
35226;BME280;21813;49.686;21.766;2023-02-02T16:43:25;97951.72;;;1.26;100.00
35226;BME280;21813;49.686;21.766;2023-02-02T16:45:57;97956.09;;;1.24;100.00
35226;BME280;21813;49.686;21.766;2023-02-02T16:53:33;97961.47;;;1.20;100.00
35226;BME280;21813;49.686;21.766;2023-02-02T16:56:00;97970.91;;;1.19;100.00
35226;BME280;21813;49.686;21.766;2023-02-02T16:58:28;97976.72;;;1.23;100.00
35226;BME280;21813;49.686;21.766;2023-02-02T17:00:58;97989.47;;;1.24;100.00
35226;BME280;21813;49.686;21.766;2023-02-02T17:03:31;97994.28;;;1.30;100.00
35226;BME280;21813;49.686;21.766;2023-02-02T17:05:59;98013.03;;;1.32;100.00
35226;BME280;21813;49.686;21.766;2023-02-02T17:08:32;98007.06;;;1.32;100.00
35226;BME280;21813;49.686;21.766;2023-02-02T17:11:02;98016.50;;;1.31;100.00
35226;BME280;21813;49.686;21.766;2023-02-02T17:15:58;98024.19;;;1.31;100.00
35226;BME280;21813;49.686;21.766;2023-02-02T17:18:25;98016.50;;;1.31;100.00
35226;BME280;21813;49.686;21.766;2023-02-02T17:20:55;98027.66;;;1.30;100.00
35226;BME280;21813;49.686;21.766;2023-02-02T17:23:30;98046.19;;;1.37;100.00
35226;BME280;21813;49.686;21.766;2023-02-02T17:25:57;98036.81;;;1.36;100.00
35226;BME280;21813;49.686;21.766;2023-02-02T17:28:24;98045.28;;;1.38;100.00
35226;BME280;21813;49.686;21.766;2023-02-02T17:30:57;98052.16;;;1.38;100.00
35226;BME280;21813;49.686;21.766;2023-02-02T17:33:25;98046.34;;;1.34;100.00
35226;BME280;21813;49.686;21.766;2023-02-02T17:35:51;98052.97;;;1.38;100.00
35226;BME280;21813;49.686;21.766;2023-02-02T17:38:20;98065.13;;;1.34;100.00
35226;BME280;21813;49.686;21.766;2023-02-02T17:40:47;98072.81;;;1.34;100.00
35226;BME280;21813;49.686;21.766;2023-02-02T17:43:14;98083.03;;;1.36;100.00
35226;BME280;21813;49.686;21.766;2023-02-02T17:45:42;98081.56;;;1.30;100.00